Milford, Iowa
Current Conditions -  °F | °C
As of 9:53 AM on Saturday 25 Oct 2014 (Local Time) from KSPW Reporting Station
Clear Clear  
Wind Chill: 56°   Ceiling: Unl
Heat Index: 56°   Visibility: 10mi
Dew Point: 41°   Wind: 3mph
Humidity: 57%   Direction: 340°NNW
Pressure: 30.13"   Gusts: NA
Location:  43.32°N, 95.15°W
Report Text: KSPW 251453Z AUTO 34003KT 10SM CLR 13/05 A3013 RMK AO2 SLP206 T01330050 52019 TSNO
Loading
Personal Weather Stations






























Interactive Weather Map
Tropical Storm Tracking
New forecast layout! Learn more

10-Day Weather Forecast

Advertisements
Track Severe Weather on mobile